Time;durP1;ratioP1;P1;durP2;ratioP2;P2;SDS_P1;SDS_P2;PMS_P1;PMS_P2;Temp;Humidity;BMP_temperature;BMP_pressure;BME280_temperature;BME280_humidity;BME280_pressure;Samples;Min_cycle;Max_cycle;Signal;HPM_P1;HPM_P2
2022/12/17 13:08:03;;;;;;;55.25;29.33;;;4.60;99.90;;;;;;5113508;28;20403;-84
2022/12/17 13:10:31;;;;;;;54.50;29.75;;;5.20;99.90;;;;;;5095212;28;20128;-86
2022/12/17 13:13:09;;;;;;;55.28;29.48;;;5.70;99.90;;;;;;5078181;28;20546;-83
2022/12/17 13:15:40;;;;;;;49.50;27.75;;;6.00;99.90;;;;;;5095358;28;20051;-83
2022/12/17 13:18:40;;;;;;;51.38;27.27;;;3.90;99.90;;;;;;5084426;28;20048;-83
2022/12/17 13:21:15;;;;;;;53.00;30.08;;;3.80;99.90;;;;;;5092616;28;20496;-86
2022/12/17 13:23:41;;;;;;;59.40;27.83;;;3.70;99.90;;;;;;5058231;28;20055;-84
2022/12/17 13:26:15;;;;;;;55.05;30.10;;;3.40;99.90;;;;;;5074768;28;20147;-84
2022/12/17 13:28:46;;;;;;;59.47;30.13;;;4.60;99.90;;;;;;5074585;28;20051;-84
2022/12/17 13:31:18;;;;;;;54.95;28.05;;;3.10;99.90;;;;;;5074648;28;20062;-84
2022/12/17 13:33:56;;;;;;;54.80;28.20;;;3.60;99.90;;;;;;5074542;28;20121;-84
2022/12/17 13:36:27;;;;;;;55.30;28.17;;;2.50;99.90;;;;;;5091362;28;20500;-84
2022/12/17 13:39:21;;;;;;;55.53;30.02;;;2.50;99.90;;;;;;5092864;28;20067;-84
2022/12/17 13:41:53;;;;;;;55.47;29.33;;;2.30;99.90;;;;;;5074666;28;20055;-84
2022/12/17 13:44:24;;;;;;;55.63;26.73;;;3.60;99.90;;;;;;5073663;28;20056;-84
2022/12/17 13:46:52;;;;;;;56.55;30.35;;;3.50;99.90;;;;;;5092674;28;20052;-84
2022/12/17 13:49:30;;;;;;;56.38;27.77;;;2.10;99.90;;;;;;5074438;28;20138;-84
2022/12/17 13:52:26;;;;;;;55.30;28.23;;;3.70;99.90;;;;;;5074759;28;20048;-84
2022/12/17 13:54:52;;;;;;;55.88;29.75;;;2.50;99.90;;;;;;5073540;28;20146;-84
2022/12/17 13:57:24;;;;;;;58.15;27.00;;;3.40;99.90;;;;;;5058705;28;20107;-85
2022/12/17 13:59:54;;;;;;;58.10;30.70;;;3.20;99.90;;;;;;5092946;28;20495;-84
2022/12/17 14:02:31;;;;;;;60.60;31.15;;;1.90;99.90;;;;;;5058213;28;20051;-84
2022/12/17 14:05:03;;;;;;;60.42;29.77;;;1.80;99.90;;;;;;5076492;28;20117;-84
2022/12/17 14:07:32;;;;;;;60.60;30.63;;;3.40;99.90;;;;;;5073649;28;20156;-85
2022/12/17 14:09:58;;;;;;;58.22;28.75;;;1.60;99.90;;;;;;5092415;28;20048;-84
2022/12/17 14:12:26;;;;;;;61.60;31.40;;;3.30;99.90;;;;;;5074600;28;20468;-84
2022/12/17 14:15:07;;;;;;;58.30;29.70;;;1.60;99.90;;;;;;5092780;28;20579;-84
2022/12/17 14:17:47;;;;;;;60.42;30.88;;;2.50;99.90;;;;;;5063877;28;20054;-85
2022/12/17 14:20:21;;;;;;;61.00;30.45;;;1.30;99.90;;;;;;5095891;28;20055;-85
2022/12/17 14:22:51;;;;;;;57.33;29.35;;;2.60;99.90;;;;;;5098091;28;20047;-85
2022/12/17 14:25:23;;;;;;;64.38;31.52;;;1.10;99.90;;;;;;5092663;28;20128;-85
2022/12/17 14:27:57;;;;;;;62.65;30.23;;;2.80;99.90;;;;;;5073371;28;20151;-85
2022/12/17 14:30:40;;;;;;;60.30;30.35;;;2.50;99.90;;;;;;5077806;28;20064;-86
2022/12/17 14:33:26;;;;;;;60.30;29.33;;;1.00;99.90;;;;;;5092150;28;20048;-86
2022/12/17 14:35:57;;;;;;;63.17;32.25;;;1.00;99.90;;;;;;5094282;28;20043;-85
2022/12/17 14:38:24;;;;;;;60.13;30.98;;;0.90;99.90;;;;;;5080112;28;20059;-86
2022/12/17 14:40:50;;;;;;;66.15;32.05;;;2.40;99.90;;;;;;5070561;28;20074;-85
2022/12/17 14:43:28;;;;;;;59.80;30.92;;;0.80;99.90;;;;;;5094995;28;20130;-87
2022/12/17 14:49:02;;;;;;;63.20;31.20;;;1.40;99.90;;;;;;5112803;28;20044;-87
2022/12/17 14:51:39;;;;;;;64.88;30.52;;;1.90;99.90;;;;;;5094273;28;20094;-86
2022/12/17 14:54:06;;;;;;;62.92;29.35;;;0.60;99.90;;;;;;5092628;28;20126;-86
2022/12/17 14:56:32;;;;;;;71.97;31.73;;;;;;;;;;5079348;28;20054;-86
2022/12/17 14:58:58;;;;;;;65.97;31.98;;;0.60;99.90;;;;;;5093798;28;20054;-86
2022/12/17 15:01:23;;;;;;;67.28;32.58;;;2.10;99.90;;;;;;5076702;28;20055;-84
2022/12/17 15:03:49;;;;;;;67.13;32.17;;;2.20;99.90;;;;;;5076885;28;20047;-86
2022/12/17 15:06:18;;;;;;;66.53;32.10;;;1.60;99.90;;;;;;5080635;28;20112;-81
2022/12/17 15:08:49;;;;;;;63.38;30.48;;;1.90;99.90;;;;;;5121889;28;20049;-87
2022/12/17 15:11:19;;;;;;;69.20;32.70;;;1.10;99.90;;;;;;5111271;28;20504;-81
2022/12/17 15:13:44;;;;;;;70.13;31.95;;;0.50;99.90;;;;;;5113160;27;20055;-84
2022/12/17 15:16:10;;;;;;;66.88;31.15;;;0.20;99.90;;;;;;5100860;27;20330;-82
2022/12/17 15:18:36;;;;;;;71.32;33.72;;;1.80;99.90;;;;;;5082800;28;20271;-83
2022/12/17 15:21:02;;;;;;;65.00;31.38;;;1.60;99.90;;;;;;5079557;27;20057;-85
2022/12/17 15:23:33;;;;;;;67.60;32.22;;;0.00;99.90;;;;;;5087811;28;20080;-88
2022/12/17 15:25:59;;;;;;;69.03;31.75;;;1.60;99.90;;;;;;5077221;28;20459;-89
2022/12/17 15:28:25;;;;;;;64.32;30.13;;;0.00;99.90;;;;;;5079825;28;20047;-89
2022/12/17 15:30:51;;;;;;;64.75;31.05;;;1.60;99.90;;;;;;5078128;28;20052;-84
2022/12/17 15:33:17;;;;;;;64.75;29.48;;;-0.10;99.90;;;;;;5115408;27;20043;-88
2022/12/17 15:35:42;;;;;;;64.53;29.77;;;1.10;99.90;;;;;;5097057;27;20083;-89
2022/12/17 15:38:10;;;;;;;70.05;31.63;;;-0.10;99.90;;;;;;5080279;27;20043;-85
2022/12/17 15:40:36;;;;;;;68.70;30.98;;;0.00;99.90;;;;;;5119860;27;20104;-85
2022/12/17 15:43:11;;;;;;;75.40;34.55;;;1.40;99.90;;;;;;5090192;27;20495;-84
2022/12/17 15:45:48;;;;;;;68.35;31.17;;;1.40;99.90;;;;;;5092655;28;20166;-84
2022/12/17 15:48:20;;;;;;;71.35;32.65;;;-0.20;99.90;;;;;;5075794;28;20059;-83
2022/12/17 15:50:46;;;;;;;65.47;29.83;;;1.30;99.90;;;;;;5060080;28;20499;-83
2022/12/17 15:53:12;;;;;;;70.65;31.27;;;1.30;99.90;;;;;;5091358;28;20126;-84
2022/12/17 15:55:38;;;;;;;71.45;32.90;;;0.90;99.90;;;;;;5113873;28;20135;-83
2022/12/17 15:58:04;;;;;;;73.88;35.47;;;1.20;99.90;;;;;;5110254;28;20155;-84
2022/12/17 16:00:30;;;;;;;69.75;34.20;;;1.50;99.90;;;;;;5093710;28;20048;-84
2022/12/17 16:02:56;;;;;;;71.45;35.38;;;1.30;99.90;;;;;;5077203;28;20059;-84
2022/12/17 16:05:22;;;;;;;78.53;37.15;;;0.90;99.90;;;;;;5093583;28;20044;-84
2022/12/17 16:07:49;;;;;;;74.10;36.42;;;1.40;99.90;;;;;;5076749;28;20518;-83
2022/12/17 16:10:15;;;;;;;76.20;36.63;;;0.10;99.90;;;;;;5093068;28;20135;-84
2022/12/17 16:12:41;;;;;;;77.75;38.03;;;-0.50;99.90;;;;;;5075866;28;20068;-84
2022/12/17 16:15:08;;;;;;;82.13;39.55;;;-0.60;99.90;;;;;;5092602;28;20128;-82
2022/12/17 16:17:34;;;;;;;77.93;37.67;;;-0.50;99.90;;;;;;5101432;28;20079;-84
2022/12/17 16:20:00;;;;;;;75.00;36.53;;;-0.60;99.90;;;;;;5115182;28;20106;-83
2022/12/17 16:22:26;;;;;;;79.63;39.50;;;0.90;99.90;;;;;;5113451;28;20134;-84
2022/12/17 16:24:52;;;;;;;78.80;37.08;;;0.60;99.90;;;;;;5079309;28;20128;-84
2022/12/17 16:27:18;;;;;;;77.20;37.42;;;0.40;99.90;;;;;;5093773;28;20047;-84
2022/12/17 16:29:46;;;;;;;76.68;35.90;;;0.60;99.90;;;;;;5079095;28;20377;-83
2022/12/17 16:32:14;;;;;;;85.45;38.33;;;1.00;99.90;;;;;;5096604;28;20136;-83
2022/12/17 16:34:40;;;;;;;84.10;38.35;;;-0.70;99.90;;;;;;5096982;28;20047;-84
2022/12/17 16:37:06;;;;;;;82.47;36.72;;;-0.40;99.90;;;;;;5091775;28;20054;-84
2022/12/17 16:39:32;;;;;;;82.88;37.83;;;1.00;99.90;;;;;;5095918;28;20411;-84
2022/12/17 16:41:57;;;;;;;80.68;37.20;;;0.60;99.90;;;;;;5096876;28;20083;-84
2022/12/17 16:44:23;;;;;;;80.53;36.55;;;-0.80;99.90;;;;;;5094068;28;20393;-84
2022/12/17 16:46:51;;;;;;;85.55;38.25;;;1.00;99.90;;;;;;5089360;28;20070;-84
2022/12/17 16:49:22;;;;;;;81.95;35.95;;;0.90;99.90;;;;;;5078718;28;20052;-83
2022/12/17 16:51:52;;;;;;;76.25;33.13;;;-0.90;99.90;;;;;;5079238;28;20426;-84
2022/12/17 16:54:29;;;;;;;81.93;36.30;;;-0.90;99.90;;;;;;5094536;28;20363;-84
2022/12/17 16:56:55;;;;;;;82.95;37.28;;;0.50;99.90;;;;;;5073828;28;20044;-84
2022/12/17 16:59:22;;;;;;;81.18;36.60;;;-1.00;99.90;;;;;;5073980;28;20125;-84
2022/12/17 17:01:49;;;;;;;80.35;36.42;;;-1.00;99.90;;;;;;5073579;28;20093;-84
2022/12/17 17:04:18;;;;;;;83.15;35.50;;;-0.40;99.90;;;;;;5107240;28;20052;-84
2022/12/17 17:06:46;;;;;;;84.28;37.20;;;-0.20;99.90;;;;;;5075351;28;20378;-84
2022/12/17 17:09:13;;;;;;;76.97;33.50;;;0.50;99.90;;;;;;5091846;28;20543;-83
2022/12/17 17:11:39;;;;;;;88.57;38.88;;;0.90;99.90;;;;;;5091185;28;20055;-84
2022/12/17 17:14:05;;;;;;;83.90;35.45;;;-1.20;99.90;;;;;;5092444;28;20051;-84
2022/12/17 17:16:33;;;;;;;87.85;35.70;;;-0.20;99.90;;;;;;5075215;28;20066;-84
2022/12/17 17:18:59;;;;;;;84.47;35.30;;;-0.40;99.90;;;;;;5086203;28;20040;-83
2022/12/17 17:21:28;;;;;;;85.55;39.22;;;0.00;99.90;;;;;;5091944;28;20070;-84
2022/12/17 17:24:00;;;;;;;82.78;34.92;;;0.50;99.90;;;;;;5092966;28;20400;-84
2022/12/17 17:26:30;;;;;;;91.32;38.53;;;-1.20;99.90;;;;;;5073846;28;20141;-84
2022/12/17 17:28:57;;;;;;;89.93;37.92;;;-1.30;99.90;;;;;;5074337;28;20063;-83
2022/12/17 17:31:23;;;;;;;87.25;37.35;;;-1.40;99.90;;;;;;5093678;28;20056;-84
2022/12/17 17:33:50;;;;;;;82.68;34.42;;;-1.30;99.90;;;;;;5091479;28;20047;-84
2022/12/17 17:36:17;;;;;;;86.47;35.53;;;0.30;99.90;;;;;;5081706;28;20235;-84
2022/12/17 17:38:44;;;;;;;83.22;36.00;;;-1.30;99.90;;;;;;5104659;27;20119;-84
2022/12/17 17:41:13;;;;;;;84.65;37.28;;;0.50;99.90;;;;;;5076974;28;20105;-84
2022/12/17 17:43:39;;;;;;;81.10;34.85;;;0.50;99.90;;;;;;5094649;28;20130;-83
2022/12/17 17:46:05;;;;;;;85.57;35.13;;;0.70;99.90;;;;;;5094460;28;20155;-84
2022/12/17 17:48:32;;;;;;;88.78;36.70;;;-1.30;99.90;;;;;;5108422;28;20055;-86
2022/12/17 17:51:01;;;;;;;81.35;35.70;;;0.50;99.90;;;;;;5091077;28;20457;-85
2022/12/17 17:53:26;;;;;;;80.68;35.50;;;-1.20;99.90;;;;;;5095300;28;20067;-85
2022/12/17 17:55:53;;;;;;;88.50;35.95;;;;;;;;;;5072434;28;20044;-84
2022/12/17 17:58:19;;;;;;;88.18;36.60;;;-1.70;99.90;;;;;;5080893;28;20047;-83
2022/12/17 18:00:44;;;;;;;85.00;35.78;;;0.80;99.90;;;;;;5084417;28;20445;-83
2022/12/17 18:03:10;;;;;;;84.35;34.65;;;0.90;99.90;;;;;;5107183;28;20078;-83
2022/12/17 18:05:41;;;;;;;83.18;33.30;;;0.90;99.90;;;;;;5097263;28;20078;-83
2022/12/17 18:08:07;;;;;;;86.07;35.22;;;0.90;99.90;;;;;;5097791;28;20055;-83
2022/12/17 18:10:33;;;;;;;85.57;35.97;;;0.80;99.90;;;;;;5079367;28;20052;-84
2022/12/17 18:15:43;;;;;;;81.43;33.13;;;-1.00;99.90;;;;;;5093410;28;20055;-85
2022/12/17 18:18:09;;;;;;;81.88;34.83;;;0.20;99.90;;;;;;5101755;28;20043;-86
2022/12/17 18:20:35;;;;;;;74.85;31.90;;;-1.60;99.90;;;;;;5095183;28;20115;-83
2022/12/17 18:23:01;;;;;;;87.43;33.13;;;0.20;99.90;;;;;;5094114;28;20092;-80
2022/12/17 18:25:26;;;;;;;80.03;33.95;;;-0.20;99.90;;;;;;5093421;28;20063;-82
2022/12/17 18:27:52;;;;;;;77.28;33.22;;;0.30;99.90;;;;;;5083352;28;20046;-85
2022/12/17 18:30:19;;;;;;;86.03;35.38;;;0.20;99.90;;;;;;5064561;28;20118;-86
2022/12/17 18:32:47;;;;;;;81.45;35.00;;;-1.10;99.90;;;;;;5085866;28;20408;-85
2022/12/17 18:35:13;;;;;;;81.93;35.30;;;0.40;99.90;;;;;;5108301;28;20048;-85
2022/12/17 18:37:39;;;;;;;81.57;34.05;;;0.40;99.90;;;;;;5107264;28;20056;-87
2022/12/17 18:40:05;;;;;;;90.05;35.45;;;-0.70;99.90;;;;;;5088495;28;20045;-87
2022/12/17 18:45:15;;;;;;;87.30;35.00;;;-0.10;99.90;;;;;;5074166;28;20088;-87
2022/12/17 18:47:44;;;;;;;91.43;36.17;;;-1.60;99.90;;;;;;5060017;28;20099;-88
2022/12/17 18:50:11;;;;;;;80.97;35.40;;;-1.70;99.90;;;;;;5096124;28;20043;-86
2022/12/17 18:52:37;;;;;;;83.20;34.85;;;-1.80;99.90;;;;;;5068467;28;20079;-87
2022/12/17 18:55:03;;;;;;;83.93;35.15;;;-1.60;99.90;;;;;;5074013;28;20052;-85
2022/12/17 18:57:29;;;;;;;84.28;34.65;;;-1.70;99.90;;;;;;5074406;28;20066;-84
2022/12/17 18:59:55;;;;;;;85.32;35.28;;;-0.40;99.90;;;;;;5081696;28;20097;-86
2022/12/17 19:02:21;;;;;;;83.60;33.53;;;0.10;99.90;;;;;;5078150;28;20047;-83
2022/12/17 19:04:47;;;;;;;85.72;33.33;;;0.00;99.90;;;;;;5095802;28;20557;-87
2022/12/17 19:07:13;;;;;;;85.75;34.28;;;0.60;99.90;;;;;;5111769;28;20098;-87
2022/12/17 19:09:41;;;;;;;90.47;34.90;;;-1.30;99.90;;;;;;5074519;28;20063;-87
2022/12/17 19:12:08;;;;;;;80.85;35.08;;;-1.90;99.90;;;;;;5083425;28;20044;-86
2022/12/17 19:14:35;;;;;;;79.55;31.48;;;-1.80;99.90;;;;;;5102319;28;20074;-86
2022/12/17 19:17:01;;;;;;;81.07;33.30;;;0.00;99.90;;;;;;5112728;28;20518;-86
2022/12/17 19:19:27;;;;;;;87.85;34.90;;;0.50;99.90;;;;;;5058107;28;20052;-87
2022/12/17 19:21:54;;;;;;;79.65;34.08;;;-1.50;99.90;;;;;;5058350;28;20051;-84
2022/12/17 19:24:21;;;;;;;85.75;34.38;;;-1.50;99.90;;;;;;5078133;28;20048;-84
2022/12/17 19:26:48;;;;;;;80.03;32.65;;;0.30;99.90;;;;;;5103054;28;20080;-83
2022/12/17 19:29:15;;;;;;;86.82;35.53;;;-0.60;99.90;;;;;;5104835;28;20043;-86
2022/12/17 19:31:42;;;;;;;90.93;35.20;;;-0.20;99.90;;;;;;5116262;28;20047;-83
2022/12/17 19:34:10;;;;;;;85.47;36.08;;;-1.90;99.90;;;;;;5104566;28;20052;-84
2022/12/17 19:36:37;;;;;;;88.93;35.20;;;0.60;99.90;;;;;;5113874;28;20055;-83
2022/12/17 19:39:07;;;;;;;86.25;35.30;;;-1.00;99.90;;;;;;5088254;28;20048;-82
2022/12/17 19:41:33;;;;;;;83.60;34.75;;;-1.90;99.90;;;;;;5115891;28;20046;-82
2022/12/17 19:44:04;;;;;;;83.43;36.50;;;0.40;99.90;;;;;;5111693;27;20403;-82
2022/12/17 19:46:31;;;;;;;88.60;37.58;;;-1.90;99.90;;;;;;5109842;28;20043;-82
2022/12/17 19:48:57;;;;;;;86.43;35.72;;;-1.70;99.90;;;;;;5105741;28;20051;-81
2022/12/17 19:51:25;;;;;;;91.47;37.88;;;-0.20;99.90;;;;;;5108075;28;20206;-83
2022/12/17 19:53:50;;;;;;;85.03;35.30;;;-0.30;99.90;;;;;;5083325;28;20061;-83
2022/12/17 19:56:21;;;;;;;87.25;37.33;;;-1.90;99.90;;;;;;5093895;28;20138;-85
2022/12/17 19:58:52;;;;;;;81.93;34.42;;;-1.90;99.90;;;;;;5113021;28;20083;-83
2022/12/17 20:01:23;;;;;;;87.90;36.33;;;-1.90;99.90;;;;;;5102552;28;20431;-83
2022/12/17 20:03:50;;;;;;;88.00;36.90;;;-0.50;99.90;;;;;;5086048;28;20469;-83
2022/12/17 20:06:17;;;;;;;87.07;37.17;;;-1.90;99.90;;;;;;5097471;28;20444;-83
2022/12/17 20:08:43;;;;;;;89.70;37.58;;;-1.90;99.90;;;;;;5092911;28;20052;-83
2022/12/17 20:14:07;;;;;;;81.53;35.10;;;-1.90;99.90;;;;;;5109316;28;20587;-83
2022/12/17 20:16:37;;;;;;;78.05;34.30;;;-1.90;99.90;;;;;;5097367;28;20056;-83
2022/12/17 20:19:05;;;;;;;82.00;35.47;;;-0.30;99.90;;;;;;5087613;28;20140;-84
2022/12/17 20:21:31;;;;;;;89.03;39.55;;;-0.60;99.90;;;;;;5092237;28;20066;-84
2022/12/17 20:23:57;;;;;;;86.18;38.45;;;-2.00;99.90;;;;;;5089561;28;20582;-82
2022/12/17 20:26:23;;;;;;;85.85;38.85;;;-2.00;99.90;;;;;;5073584;28;20052;-80
2022/12/17 20:28:49;;;;;;;80.72;36.90;;;-0.50;99.90;;;;;;5089596;28;20052;-80
2022/12/17 20:31:15;;;;;;;89.75;40.05;;;-0.30;99.90;;;;;;5092618;28;20436;-75
2022/12/17 20:33:41;;;;;;;80.35;37.80;;;-2.30;99.90;;;;;;5098023;27;20055;-78
2022/12/17 20:36:10;;;;;;;90.07;38.38;;;-2.10;99.90;;;;;;5092094;28;20055;-79
2022/12/17 20:38:36;;;;;;;80.35;36.58;;;-2.10;99.90;;;;;;5091064;28;20138;-79
2022/12/17 20:41:11;;;;;;;87.20;38.97;;;-2.10;99.90;;;;;;5091447;28;20412;-82
2022/12/17 20:43:37;;;;;;;80.93;38.65;;;-2.20;99.90;;;;;;5131398;27;20051;-82
2022/12/17 20:46:04;;;;;;;85.25;38.60;;;-1.00;99.90;;;;;;5092557;28;20047;-82
2022/12/17 20:48:30;;;;;;;85.53;38.03;;;-2.20;99.90;;;;;;5125628;27;20069;-83
2022/12/17 20:50:56;;;;;;;85.13;40.53;;;-1.20;99.90;;;;;;5131767;27;20131;-83
2022/12/17 20:53:21;;;;;;;88.78;40.10;;;-2.20;99.90;;;;;;5112752;27;20566;-83
2022/12/17 20:55:57;;;;;;;88.97;40.58;;;-2.20;99.90;;;;;;5098806;27;20047;-84
2022/12/17 20:58:23;;;;;;;95.03;42.05;;;-2.30;99.90;;;;;;5075918;28;20097;-84
2022/12/17 21:00:48;;;;;;;90.88;40.97;;;-2.30;99.90;;;;;;5075660;28;20138;-84
2022/12/17 21:03:14;;;;;;;93.88;41.47;;;-0.50;99.90;;;;;;5092519;28;20040;-83
2022/12/17 21:05:40;;;;;;;86.85;41.65;;;-2.40;99.90;;;;;;5090477;28;20051;-83
2022/12/17 21:08:05;;;;;;;89.03;42.28;;;-2.40;99.90;;;;;;5090859;28;20090;-83
2022/12/17 21:10:31;;;;;;;90.13;42.22;;;-0.10;99.90;;;;;;5093615;28;20051;-84
2022/12/17 21:15:53;;;;;;;89.82;41.50;;;-2.30;99.90;;;;;;5102224;27;20054;-83
2022/12/17 21:18:18;;;;;;;93.85;42.30;;;-2.30;99.90;;;;;;5099536;28;20047;-84
2022/12/17 21:20:53;;;;;;;93.18;42.90;;;-2.30;99.90;;;;;;5110380;28;20435;-84
2022/12/17 21:23:19;;;;;;;89.38;42.63;;;-2.20;99.90;;;;;;5099131;27;20057;-83
2022/12/17 21:25:45;;;;;;;89.78;42.80;;;-2.30;99.90;;;;;;5074329;28;20044;-83
2022/12/17 21:28:11;;;;;;;95.75;44.30;;;-2.30;99.90;;;;;;5093487;27;20375;-83
2022/12/17 21:30:38;;;;;;;90.93;45.47;;;-2.20;99.90;;;;;;5089904;28;20067;-82
2022/12/17 21:33:04;;;;;;;89.30;40.78;;;-2.20;99.90;;;;;;5092044;28;20050;-82
2022/12/17 21:35:29;;;;;;;89.95;41.97;;;-2.20;99.90;;;;;;5090950;28;20051;-83
2022/12/17 21:37:55;;;;;;;92.85;43.67;;;-0.90;99.90;;;;;;5109990;28;20636;-82
2022/12/17 21:40:21;;;;;;;99.35;43.38;;;-2.30;99.90;;;;;;5074800;28;20078;-83
2022/12/17 21:43:01;;;;;;;97.07;43.67;;;-2.30;99.90;;;;;;5077606;27;20474;-83
2022/12/17 21:45:38;;;;;;;93.57;43.08;;;-2.30;99.90;;;;;;5086054;28;20060;-83
2022/12/17 21:48:05;;;;;;;93.00;42.80;;;-2.30;99.90;;;;;;5072337;28;20440;-82
2022/12/17 21:50:31;;;;;;;89.35;43.10;;;-2.30;99.90;;;;;;5101978;28;20094;-82
2022/12/17 21:52:58;;;;;;;86.10;40.92;;;-0.60;99.90;;;;;;5092074;28;20048;-83
2022/12/17 21:55:24;;;;;;;85.07;42.03;;;-2.30;99.90;;;;;;5091880;28;20452;-86
2022/12/17 21:57:49;;;;;;;90.68;42.25;;;-2.30;99.90;;;;;;5093679;28;20044;-81
2022/12/17 22:00:16;;;;;;;94.22;42.92;;;-2.40;99.90;;;;;;5083607;28;20065;-82
2022/12/17 22:02:41;;;;;;;95.18;43.78;;;-2.30;99.90;;;;;;5111912;28;20458;-82
2022/12/17 22:05:07;;;;;;;90.63;41.33;;;-0.80;99.90;;;;;;5103855;28;20140;-81
2022/12/17 22:07:33;;;;;;;95.75;43.00;;;-2.30;99.90;;;;;;5092520;28;20048;-82
2022/12/17 22:09:59;;;;;;;92.50;41.83;;;-2.40;99.90;;;;;;5074397;28;20051;-81
2022/12/17 22:15:09;;;;;;;88.30;39.95;;;-2.40;99.90;;;;;;5091641;28;20081;-81
2022/12/17 22:17:36;;;;;;;91.07;42.20;;;-1.60;99.90;;;;;;5079859;28;20052;-82
2022/12/17 22:20:04;;;;;;;91.40;41.03;;;-2.40;99.90;;;;;;5096291;28;20052;-82
2022/12/17 22:22:29;;;;;;;92.30;40.35;;;-2.50;99.90;;;;;;5133583;27;20051;-82
2022/12/17 22:24:55;;;;;;;89.38;38.72;;;-2.40;99.90;;;;;;5103116;27;20134;-82
2022/12/17 22:27:22;;;;;;;95.88;40.33;;;-2.60;99.90;;;;;;5096690;28;20047;-82
2022/12/17 22:35:15;;;;;;;91.65;41.08;;;-1.60;99.90;;;;;;5095996;28;20062;-81
2022/12/17 22:37:41;;;;;;;92.65;40.28;;;-2.60;99.90;;;;;;5097376;28;20044;-82
2022/12/17 22:40:08;;;;;;;98.93;42.17;;;-1.70;99.90;;;;;;5110722;28;20054;-82
2022/12/17 22:45:18;;;;;;;91.68;41.05;;;-1.00;99.90;;;;;;5099196;28;20112;-82
2022/12/17 22:47:44;;;;;;;96.00;40.25;;;-2.60;99.90;;;;;;5116186;28;20044;-82
2022/12/17 22:50:09;;;;;;;101.30;40.55;;;-1.80;99.90;;;;;;5113540;28;20115;-82
2022/12/17 22:52:35;;;;;;;98.57;40.80;;;-2.50;99.90;;;;;;5097533;28;20048;-81
2022/12/17 22:55:01;;;;;;;101.43;40.85;;;-2.50;99.90;;;;;;5088657;28;20044;-82
2022/12/17 22:57:27;;;;;;;94.18;40.67;;;-0.40;99.90;;;;;;5077453;28;20135;-82
2022/12/17 22:59:53;;;;;;;97.38;41.33;;;-2.60;99.90;;;;;;5103500;28;20075;-82
2022/12/17 23:02:18;;;;;;;94.85;40.15;;;-2.80;99.90;;;;;;5094206;28;20087;-82
2022/12/17 23:04:44;;;;;;;99.40;39.63;;;-2.70;99.90;;;;;;5104607;28;20036;-81
2022/12/17 23:07:10;;;;;;;96.95;40.25;;;-1.20;99.90;;;;;;5094180;28;20412;-81
2022/12/17 23:09:35;;;;;;;102.55;42.28;;;-0.50;99.90;;;;;;5107667;28;20036;-82
2022/12/17 23:12:49;;;;;;;94.68;39.53;;;-2.70;99.90;;;;;;5076827;28;20051;-82
2022/12/17 23:14:47;;;;;;;95.67;40.43;;;-2.80;99.90;;;;;;5094274;28;20078;-81
2022/12/17 23:17:12;;;;;;;105.22;42.90;;;-2.80;99.90;;;;;;5057786;28;20400;-82
2022/12/17 23:19:38;;;;;;;96.88;39.10;;;-1.70;99.90;;;;;;5074939;28;20058;-82
2022/12/17 23:22:04;;;;;;;93.20;39.05;;;-2.80;99.90;;;;;;5085108;28;20072;-82
2022/12/17 23:24:29;;;;;;;99.60;42.08;;;-2.90;99.90;;;;;;5075726;28;20044;-81
2022/12/17 23:26:55;;;;;;;94.63;39.20;;;-2.80;99.90;;;;;;5060560;28;20318;-82
2022/12/17 23:29:21;;;;;;;94.88;39.42;;;-2.90;99.90;;;;;;5077774;28;20052;-82
2022/12/17 23:31:46;;;;;;;97.88;38.08;;;-3.30;99.90;;;;;;5096210;28;20131;-82
2022/12/17 23:34:12;;;;;;;100.75;40.25;;;-0.80;99.90;;;;;;5096702;28;20128;-81
2022/12/17 23:36:38;;;;;;;107.40;42.17;;;-2.90;99.90;;;;;;5115235;28;20048;-81
2022/12/17 23:39:05;;;;;;;101.72;40.97;;;-2.90;99.90;;;;;;5133175;27;20047;-82
2022/12/17 23:41:31;;;;;;;106.38;41.40;;;-2.80;99.90;;;;;;5111852;28;20109;-82
2022/12/17 23:43:57;;;;;;;105.97;43.33;;;-2.80;99.90;;;;;;5132038;27;20062;-81
2022/12/17 23:46:25;;;;;;;101.85;39.85;;;-1.90;99.90;;;;;;5115827;28;20036;-83
2022/12/17 23:48:51;;;;;;;105.88;40.55;;;-2.80;99.90;;;;;;5130241;27;20108;-82
2022/12/17 23:51:19;;;;;;;98.78;39.47;;;-2.80;99.90;;;;;;5105329;27;20401;-82
2022/12/17 23:53:45;;;;;;;101.47;39.38;;;-2.90;99.90;;;;;;5106052;28;20053;-82
2022/12/17 23:56:17;;;;;;;92.25;39.28;;;-1.50;99.90;;;;;;5116387;27;20134;-82
2022/12/17 23:58:44;;;;;;;95.30;35.78;;;-1.30;99.90;;;;;;5108190;27;20126;-82
